createdAt,value
2022-11-17T00:02:20.687Z,77.25
2022-11-17T00:04:47.346Z,77.15
2022-11-17T00:07:15.440Z,76.83
2022-11-17T00:09:42.162Z,76.60
2022-11-17T00:12:08.735Z,76.94
2022-11-17T00:14:36.673Z,76.93
2022-11-17T00:17:05.049Z,76.73
2022-11-17T00:19:31.676Z,76.97
2022-11-17T00:21:58.296Z,77.15
2022-11-17T00:24:26.249Z,77.14
2022-11-17T00:26:52.965Z,77.36
2022-11-17T00:29:19.540Z,77.20
2022-11-17T00:31:46.241Z,77.30
2022-11-17T00:34:15.353Z,77.30
2022-11-17T00:36:43.985Z,77.17
2022-11-17T00:39:11.934Z,77.29
2022-11-17T00:41:40.104Z,77.05
2022-11-17T00:44:07.105Z,77.67
2022-11-17T00:46:34.573Z,77.36
2022-11-17T00:49:01.375Z,77.03
2022-11-17T00:51:28.247Z,77.21
2022-11-17T00:53:54.908Z,77.13
2022-11-17T00:56:21.711Z,77.48
2022-11-17T00:58:49.768Z,77.70
2022-11-17T01:01:16.447Z,77.49
2022-11-17T01:03:43.329Z,77.22
2022-11-17T01:06:12.155Z,77.17
2022-11-17T01:08:39.049Z,77.43
2022-11-17T01:11:11.020Z,77.60
2022-11-17T01:13:38.317Z,77.13
2022-11-17T01:16:08.819Z,77.43
2022-11-17T01:18:35.920Z,77.73
2022-11-17T01:21:08.945Z,77.56
2022-11-17T01:23:36.718Z,77.24
2022-11-17T01:26:08.614Z,77.38
2022-11-17T01:28:35.349Z,77.61
2022-11-17T01:31:04.307Z,77.63
2022-11-17T01:33:32.688Z,77.57
2022-11-17T01:36:03.853Z,77.51
2022-11-17T01:38:31.134Z,77.24
2022-11-17T01:40:59.078Z,77.26
2022-11-17T01:43:37.521Z,77.15
2022-11-17T01:46:04.780Z,77.16
2022-11-17T01:48:33.678Z,77.18
2022-11-17T01:51:00.855Z,77.46
2022-11-17T01:53:27.649Z,77.34
2022-11-17T01:55:57.020Z,77.24
2022-11-17T01:58:28.844Z,76.97
2022-11-17T02:00:55.660Z,77.35
2022-11-17T02:03:24.153Z,77.12
2022-11-17T02:05:57.560Z,77.26
2022-11-17T02:08:25.184Z,77.05
2022-11-17T02:10:53.358Z,77.13
2022-11-17T02:13:21.694Z,77.15
2022-11-17T02:15:48.625Z,77.05
2022-11-17T02:18:16.384Z,77.05
2022-11-17T02:21:15.157Z,76.92
2022-11-17T02:24:08.861Z,76.97
2022-11-17T02:27:06.466Z,76.99
2022-11-17T02:29:43.342Z,77.19
2022-11-17T02:32:15.723Z,77.06
2022-11-17T02:34:47.619Z,76.92
2022-11-17T02:37:20.812Z,77.40
2022-11-17T02:39:53.852Z,77.21
2022-11-17T02:42:27.577Z,77.09
2022-11-17T02:44:58.506Z,77.18
2022-11-17T02:47:29.555Z,77.13
2022-11-17T02:50:01.385Z,76.74
2022-11-17T02:52:29.942Z,76.98
2022-11-17T02:54:59.305Z,77.05
2022-11-17T02:57:30.354Z,77.10
2022-11-17T03:00:00.887Z,76.84
2022-11-17T03:02:57.785Z,77.10
2022-11-17T03:05:32.045Z,77.01
2022-11-17T03:08:11.337Z,77.03
2022-11-17T03:10:48.210Z,77.14
2022-11-17T03:13:20.802Z,77.34
2022-11-17T03:15:53.093Z,77.04
2022-11-17T03:18:24.741Z,77.24
2022-11-17T03:21:02.052Z,77.06
2022-11-17T03:23:33.758Z,76.96
2022-11-17T03:26:05.200Z,77.12
2022-11-17T03:28:33.418Z,77.36
2022-11-17T03:31:04.590Z,77.26
2022-11-17T03:33:32.106Z,77.18
2022-11-17T03:36:03.936Z,77.10
2022-11-17T03:38:37.218Z,77.44
2022-11-17T03:41:09.029Z,77.04
2022-11-17T03:43:37.791Z,77.11
2022-11-17T03:46:09.673Z,77.07
2022-11-17T03:48:42.565Z,77.42
2022-11-17T03:51:12.902Z,77.20
2022-11-17T03:53:40.160Z,77.36
2022-11-17T03:56:18.701Z,77.28
2022-11-17T03:58:51.826Z,77.18
2022-11-17T04:01:21.222Z,77.47
2022-11-17T04:03:48.360Z,77.11
2022-11-17T04:06:14.901Z,77.57
2022-11-17T04:08:41.697Z,77.25
2022-11-17T04:11:08.248Z,77.14
2022-11-17T04:13:35.048Z,77.50
2022-11-17T04:16:01.954Z,77.31
2022-11-17T04:18:30.003Z,77.35
2022-11-17T04:20:57.164Z,77.77
2022-11-17T04:23:24.616Z,77.50
2022-11-17T04:25:53.576Z,77.67
2022-11-17T04:28:20.967Z,77.80
2022-11-17T04:30:47.538Z,77.64
2022-11-17T04:33:14.130Z,77.99
2022-11-17T04:35:42.078Z,77.95
2022-11-17T04:38:08.709Z,77.99
2022-11-17T04:40:35.340Z,77.98
2022-11-17T04:43:01.873Z,78.08
2022-11-17T04:45:28.509Z,78.14
2022-11-17T04:47:55.175Z,78.33
2022-11-17T04:50:21.791Z,78.04
2022-11-17T04:52:49.737Z,78.36
2022-11-17T04:55:16.318Z,78.33
2022-11-17T04:57:42.885Z,78.19
2022-11-17T05:00:10.585Z,78.19
2022-11-17T05:02:37.167Z,78.25
2022-11-17T05:05:04.245Z,78.54
2022-11-17T05:07:30.926Z,78.37
2022-11-17T05:09:58.860Z,78.60
2022-11-17T05:12:25.668Z,78.68
2022-11-17T05:14:52.239Z,78.60
2022-11-17T05:17:18.829Z,78.73
2022-11-17T05:19:47.292Z,78.70
2022-11-17T05:22:15.619Z,78.72
2022-11-17T05:24:42.177Z,78.78
2022-11-17T05:27:10.158Z,78.89
2022-11-17T05:29:36.729Z,78.98
2022-11-17T05:32:03.416Z,78.86
2022-11-17T05:34:30.076Z,79.14
2022-11-17T05:36:56.656Z,79.15
2022-11-17T05:39:23.247Z,78.94
2022-11-17T05:41:49.886Z,79.20
2022-11-17T05:44:17.843Z,79.01
2022-11-17T05:46:44.410Z,79.03
2022-11-17T05:49:11.163Z,78.93
2022-11-17T05:51:37.774Z,79.12
2022-11-17T05:54:04.468Z,79.12
2022-11-17T05:56:38.549Z,79.13
2022-11-17T05:59:19.370Z,79.24
2022-11-17T06:01:55.247Z,79.25
2022-11-17T06:04:21.909Z,79.27
2022-11-17T06:06:49.476Z,79.15
2022-11-17T06:09:16.570Z,79.38
2022-11-17T06:11:43.136Z,79.06
2022-11-17T06:14:09.733Z,79.11
2022-11-17T06:16:40.708Z,79.12
2022-11-17T06:19:13.234Z,79.14
2022-11-17T06:22:10.137Z,79.06
2022-11-17T06:24:27.138Z,79.17
2022-11-17T06:26:53.884Z,79.05
2022-11-17T06:29:20.570Z,78.90
2022-11-17T06:31:47.354Z,79.01
2022-11-17T06:34:15.602Z,79.09
2022-11-17T06:36:42.162Z,79.32
2022-11-17T06:39:08.795Z,79.19
2022-11-17T06:41:36.365Z,79.18
2022-11-17T06:44:03.021Z,78.98
2022-11-17T06:46:30.283Z,78.94
2022-11-17T06:48:56.835Z,79.15
2022-11-17T06:51:24.857Z,78.74
2022-11-17T06:53:51.487Z,78.86
2022-11-17T06:56:18.132Z,79.10
2022-11-17T06:58:44.780Z,79.17
2022-11-17T07:01:13.173Z,78.97
2022-11-17T07:03:41.141Z,78.90
2022-11-17T07:06:09.837Z,78.61
2022-11-17T07:08:38.870Z,78.83
2022-11-17T07:11:07.225Z,78.54
2022-11-17T07:13:34.573Z,78.76
2022-11-17T07:16:05.443Z,78.38
2022-11-17T07:18:33.065Z,78.43
2022-11-17T07:21:05.003Z,78.63
2022-11-17T07:23:32.548Z,78.54
2022-11-17T07:26:01.293Z,78.43
2022-11-17T07:28:28.254Z,78.36
2022-11-17T07:30:55.533Z,78.10
2022-11-17T07:33:22.406Z,78.01
2022-11-17T07:35:49.192Z,78.08
2022-11-17T07:38:15.810Z,78.05
2022-11-17T07:40:42.513Z,77.92
2022-11-17T07:43:10.538Z,77.77
2022-11-17T07:45:37.196Z,77.46
2022-11-17T07:48:05.361Z,77.56
2022-11-17T07:50:32.337Z,77.52
2022-11-17T07:52:59.060Z,77.71
2022-11-17T07:55:26.336Z,76.94
2022-11-17T07:57:57.165Z,77.49
2022-11-17T08:00:25.783Z,77.51
2022-11-17T08:02:52.609Z,77.22
2022-11-17T08:05:19.686Z,77.02
2022-11-17T08:07:53.666Z,76.86
2022-11-17T08:10:20.326Z,76.92
2022-11-17T08:12:46.968Z,76.96
2022-11-17T08:15:13.815Z,77.00
2022-11-17T08:17:41.832Z,77.12
2022-11-17T08:20:09.612Z,76.67
2022-11-17T08:22:36.327Z,76.46
2022-11-17T08:25:03.034Z,76.35
2022-11-17T08:27:29.848Z,76.23
2022-11-17T08:29:56.475Z,76.08
2022-11-17T08:32:23.131Z,76.04
2022-11-17T08:34:51.267Z,76.07
2022-11-17T08:37:17.985Z,75.93
2022-11-17T08:39:44.614Z,76.03
2022-11-17T08:42:11.424Z,75.76
2022-11-17T08:44:38.157Z,75.62
2022-11-17T08:47:04.886Z,75.87
2022-11-17T08:49:31.571Z,75.96
2022-11-17T08:51:59.633Z,75.87
2022-11-17T08:54:26.298Z,75.41
2022-11-17T08:56:57.054Z,75.42
2022-11-17T08:59:23.906Z,75.39
2022-11-17T09:01:50.497Z,75.31
2022-11-17T09:04:17.860Z,75.21
2022-11-17T09:06:44.556Z,75.02
2022-11-17T09:09:12.799Z,74.97
2022-11-17T09:11:39.428Z,75.54
2022-11-17T09:14:07.245Z,75.09
2022-11-17T09:16:34.495Z,74.97
2022-11-17T09:19:01.077Z,74.94
2022-11-17T09:21:27.710Z,75.59
2022-11-17T09:23:54.639Z,75.56
2022-11-17T09:26:22.720Z,75.58
2022-11-17T09:28:49.304Z,75.18
2022-11-17T09:31:17.649Z,75.08
2022-11-17T09:33:44.531Z,75.14
2022-11-17T09:36:12.498Z,75.33
2022-11-17T09:38:40.187Z,75.40
2022-11-17T09:41:24.182Z,75.28
2022-11-17T09:43:54.347Z,75.28
2022-11-17T09:46:28.279Z,75.53
2022-11-17T09:49:02.867Z,75.52
2022-11-17T09:51:31.491Z,75.73
2022-11-17T09:54:05.085Z,75.67
2022-11-17T09:56:33.973Z,75.96
2022-11-17T09:59:04.811Z,75.48
2022-11-17T10:01:34.009Z,75.71
2022-11-17T10:04:00.720Z,75.85
2022-11-17T10:06:30.627Z,75.60
2022-11-17T10:09:01.428Z,75.97
2022-11-17T10:11:29.948Z,75.68
2022-11-17T10:13:58.809Z,75.88
2022-11-17T10:16:25.449Z,75.63
2022-11-17T10:18:52.084Z,75.68
2022-11-17T10:21:18.693Z,75.84
2022-11-17T10:23:54.878Z,76.12
2022-11-17T10:26:21.555Z,76.33
2022-11-17T10:28:48.411Z,76.21
2022-11-17T10:31:18.737Z,75.94
2022-11-17T10:33:47.501Z,76.58
2022-11-17T10:36:19.511Z,76.52
2022-11-17T10:38:48.254Z,76.23
2022-11-17T10:41:17.804Z,76.26
2022-11-17T10:43:55.789Z,76.14
2022-11-17T10:46:24.174Z,76.06
2022-11-17T10:48:56.854Z,76.08
2022-11-17T10:51:25.338Z,76.04
2022-11-17T10:54:05.140Z,76.33
2022-11-17T10:56:38.561Z,76.17
2022-11-17T10:59:12.957Z,75.54
2022-11-17T11:01:42.671Z,75.92
2022-11-17T11:04:28.349Z,75.61
2022-11-17T11:07:06.680Z,75.81
2022-11-17T11:09:34.779Z,75.48
2022-11-17T11:12:04.820Z,75.71
2022-11-17T11:14:37.817Z,75.96
2022-11-17T11:17:11.488Z,76.27
2022-11-17T11:19:38.268Z,75.68
2022-11-17T11:22:25.104Z,75.64
2022-11-17T11:24:58.275Z,75.72
2022-11-17T11:27:48.718Z,75.44
2022-11-17T11:30:17.614Z,75.47
2022-11-17T11:32:55.612Z,75.38
2022-11-17T11:35:36.588Z,75.30
2022-11-17T11:38:15.554Z,75.55
2022-11-17T11:40:46.645Z,75.50
2022-11-17T11:43:25.790Z,75.34
2022-11-17T11:46:05.870Z,75.26
2022-11-17T11:48:37.269Z,75.52
2022-11-17T11:51:11.094Z,75.52
2022-11-17T11:53:46.531Z,75.57
2022-11-17T11:56:17.514Z,75.33
2022-11-17T11:58:49.200Z,75.24
2022-11-17T12:01:18.339Z,75.21
2022-11-17T12:03:52.734Z,75.21
2022-11-17T12:06:28.948Z,74.95
2022-11-17T12:09:06.524Z,74.95
2022-11-17T12:11:34.412Z,74.91
2022-11-17T12:14:04.782Z,74.99
2022-11-17T12:16:34.323Z,75.05
2022-11-17T12:19:02.701Z,75.10
2022-11-17T12:21:30.395Z,74.96
2022-11-17T12:24:15.902Z,75.24
2022-11-17T12:26:42.821Z,75.31
2022-11-17T12:29:45.792Z,75.11
2022-11-17T12:32:51.606Z,74.58
2022-11-17T12:35:27.034Z,74.75
2022-11-17T12:38:30.949Z,74.78
2022-11-17T12:40:57.564Z,74.94
2022-11-17T12:43:26.049Z,74.44
2022-11-17T12:46:04.118Z,74.34
2022-11-17T12:48:35.019Z,74.40
2022-11-17T12:51:10.337Z,74.72
2022-11-17T12:53:48.533Z,74.56
2022-11-17T12:56:36.465Z,74.66
2022-11-17T12:59:34.937Z,74.38
2022-11-17T13:02:17.991Z,74.65
2022-11-17T13:04:49.870Z,74.39
2022-11-17T13:07:20.333Z,74.50
2022-11-17T13:09:51.307Z,74.53
2022-11-17T13:12:21.948Z,74.38
2022-11-17T13:14:53.525Z,74.30
2022-11-17T13:17:25.396Z,74.35
2022-11-17T13:19:58.928Z,74.40
2022-11-17T13:22:27.213Z,74.29
2022-11-17T13:28:30.377Z,74.30
2022-11-17T13:30:57.337Z,74.35
2022-11-17T13:33:25.063Z,74.65
2022-11-17T13:36:09.364Z,74.57
2022-11-17T13:38:37.519Z,74.33
2022-11-17T13:41:05.807Z,74.36
2022-11-17T13:43:39.365Z,74.49
2022-11-17T13:46:06.335Z,74.50
2022-11-17T13:48:35.443Z,74.25
2022-11-17T13:51:17.305Z,74.22
2022-11-17T13:53:47.370Z,74.14
2022-11-17T13:56:36.871Z,74.47
2022-11-17T13:59:06.494Z,74.44
2022-11-17T14:01:33.412Z,74.41
2022-11-17T14:04:21.919Z,74.15
2022-11-17T14:06:57.523Z,74.49
2022-11-17T14:09:27.004Z,74.45
2022-11-17T14:11:53.914Z,74.53
2022-11-17T14:14:26.645Z,74.44
2022-11-17T14:16:53.725Z,74.46
2022-11-17T14:19:32.281Z,74.53
2022-11-17T14:22:01.544Z,74.32
2022-11-17T14:24:30.369Z,74.34
2022-11-17T14:26:57.289Z,74.03
2022-11-17T14:29:24.330Z,74.13
2022-11-17T14:31:51.131Z,74.50
2022-11-17T14:34:18.214Z,74.52
2022-11-17T14:36:46.563Z,74.51
2022-11-17T14:39:15.306Z,74.48
2022-11-17T14:41:44.493Z,74.34
2022-11-17T14:44:11.421Z,74.43
2022-11-17T14:46:38.273Z,74.26
2022-11-17T14:49:05.305Z,74.39
2022-11-17T14:51:32.404Z,74.46
2022-11-17T14:53:59.227Z,74.55
2022-11-17T14:56:25.969Z,74.60
2022-11-17T14:58:56.461Z,74.51
2022-11-17T15:01:25.613Z,74.52
2022-11-17T15:03:53.102Z,74.75
2022-11-17T15:06:20.576Z,75.12
2022-11-17T15:08:48.032Z,75.39
2022-11-17T15:11:17.067Z,75.30
2022-11-17T15:13:44.119Z,75.24
2022-11-17T15:16:12.277Z,75.43
2022-11-17T15:18:39.006Z,75.58
2022-11-17T15:21:07.295Z,75.89
2022-11-17T15:23:37.143Z,76.22
2022-11-17T15:26:04.724Z,76.35
2022-11-17T15:28:31.482Z,76.67
2022-11-17T15:30:58.288Z,77.44
2022-11-17T15:33:26.464Z,77.76
2022-11-17T15:36:01.001Z,77.62
2022-11-17T15:38:27.838Z,78.13
2022-11-17T15:40:54.704Z,78.20
2022-11-17T15:43:21.659Z,78.78
2022-11-17T15:45:48.427Z,78.89
2022-11-17T15:48:18.763Z,79.62
2022-11-17T15:50:47.164Z,79.64
2022-11-17T15:53:13.948Z,80.11
2022-11-17T15:55:40.657Z,79.55
2022-11-17T15:58:07.464Z,80.22
2022-11-17T16:00:34.313Z,80.56
2022-11-17T16:03:01.241Z,80.79
2022-11-17T16:05:28.116Z,81.07
2022-11-17T16:07:56.167Z,81.06
2022-11-17T16:10:23.031Z,81.18
2022-11-17T16:12:49.771Z,81.11
2022-11-17T16:15:16.811Z,81.30
2022-11-17T16:17:43.531Z,80.96
2022-11-17T16:20:11.505Z,81.47
2022-11-17T16:22:38.382Z,81.43
2022-11-17T16:25:07.655Z,81.39
2022-11-17T16:27:34.323Z,81.54
2022-11-17T16:30:01.020Z,81.81
2022-11-17T16:32:27.751Z,82.23
2022-11-17T16:34:54.600Z,82.14
2022-11-17T16:37:21.361Z,82.06
2022-11-17T16:39:48.003Z,82.44
2022-11-17T16:42:16.185Z,82.42
2022-11-17T16:44:42.958Z,82.37
2022-11-17T16:47:09.685Z,82.70
2022-11-17T16:49:36.848Z,82.32
2022-11-17T16:52:03.636Z,82.31
2022-11-17T16:54:30.434Z,82.64
2022-11-17T16:56:57.097Z,82.59
2022-11-17T16:59:25.212Z,82.87
2022-11-17T17:01:52.024Z,82.92
2022-11-17T17:04:19.573Z,83.02
2022-11-17T17:06:46.254Z,82.90
2022-11-17T17:09:14.902Z,82.77
2022-11-17T17:11:41.982Z,83.10
2022-11-17T17:14:13.033Z,83.03
2022-11-17T17:16:42.460Z,83.50
2022-11-17T17:19:11.740Z,83.36
2022-11-17T17:21:39.668Z,83.62
2022-11-17T17:24:07.727Z,83.65
2022-11-17T17:26:35.972Z,83.74
2022-11-17T17:29:04.673Z,83.50
2022-11-17T17:31:33.371Z,83.64
2022-11-17T17:34:01.696Z,83.77
2022-11-17T17:36:28.747Z,83.79
2022-11-17T17:38:57.513Z,83.66
2022-11-17T17:41:26.446Z,83.80
2022-11-17T17:43:57.812Z,83.70
2022-11-17T17:46:25.134Z,83.70
2022-11-17T17:48:51.853Z,84.05
2022-11-17T17:51:21.473Z,84.07
2022-11-17T17:53:48.104Z,84.04
2022-11-17T17:56:14.940Z,84.15
2022-11-17T17:58:41.663Z,83.59
2022-11-17T18:01:10.334Z,83.88
2022-11-17T18:03:37.104Z,83.64
2022-11-17T18:06:04.384Z,83.94
2022-11-17T18:08:35.394Z,83.82
2022-11-17T18:11:03.690Z,83.73
2022-11-17T18:13:30.965Z,83.98
2022-11-17T18:15:57.985Z,83.64
2022-11-17T18:18:24.806Z,83.73
2022-11-17T18:20:58.826Z,83.79
2022-11-17T18:23:28.056Z,83.89
2022-11-17T18:25:56.630Z,83.76
2022-11-17T18:28:23.624Z,83.98
2022-11-17T18:30:50.512Z,83.93
2022-11-17T18:33:17.175Z,83.89
2022-11-17T18:35:43.944Z,83.45
2022-11-17T18:38:10.639Z,84.06
2022-11-17T18:40:37.294Z,84.20
2022-11-17T18:43:05.270Z,84.12
2022-11-17T18:45:35.764Z,83.92
2022-11-17T18:48:02.401Z,84.20
2022-11-17T18:50:29.128Z,84.42
2022-11-17T18:52:56.520Z,83.88
2022-11-17T18:55:23.541Z,84.11
2022-11-17T18:57:50.296Z,84.38
2022-11-17T19:00:19.105Z,84.03
2022-11-17T19:02:45.810Z,84.27
2022-11-17T19:05:12.514Z,84.20
2022-11-17T19:07:39.328Z,84.54
2022-11-17T19:10:06.834Z,84.74
2022-11-17T19:12:33.545Z,84.73
2022-11-17T19:15:00.191Z,84.52
2022-11-17T19:17:28.297Z,84.41
2022-11-17T19:19:54.990Z,84.28
2022-11-17T19:22:21.722Z,84.34
2022-11-17T19:24:48.346Z,83.82
2022-11-17T19:27:15.050Z,83.80
2022-11-17T19:29:41.713Z,84.00
2022-11-17T19:32:08.494Z,83.78
2022-11-17T19:34:36.519Z,84.19
2022-11-17T19:37:03.311Z,84.12
2022-11-17T19:39:30.199Z,84.39
2022-11-17T19:41:56.958Z,84.32
2022-11-17T19:44:23.602Z,83.56
2022-11-17T19:46:50.321Z,83.23
2022-11-17T19:49:17.292Z,83.41
2022-11-17T19:51:45.527Z,83.53
2022-11-17T19:54:12.903Z,83.10
2022-11-17T19:56:39.659Z,82.97
2022-11-17T19:59:08.671Z,82.80
2022-11-17T20:01:39.241Z,83.11
2022-11-17T20:04:05.922Z,83.11
2022-11-17T20:06:35.829Z,83.53
2022-11-17T20:09:06.609Z,83.41
2022-11-17T20:11:33.254Z,83.38
2022-11-17T20:13:59.978Z,82.82
2022-11-17T20:16:27.433Z,82.60
2022-11-17T20:18:56.004Z,82.99
2022-11-17T20:21:23.359Z,82.35
2022-11-17T20:23:50.335Z,82.24
2022-11-17T20:26:21.009Z,82.32
2022-11-17T20:28:48.018Z,82.18
2022-11-17T20:31:16.168Z,81.83
2022-11-17T20:33:43.873Z,81.85
2022-11-17T20:36:13.061Z,81.67
2022-11-17T20:38:39.948Z,82.03
2022-11-17T20:41:06.924Z,82.14
2022-11-17T20:43:35.880Z,81.76
2022-11-17T20:46:03.813Z,81.56
2022-11-17T20:48:30.994Z,81.63
2022-11-17T20:50:58.173Z,81.38
2022-11-17T20:53:25.293Z,81.75
2022-11-17T20:55:52.224Z,81.31
2022-11-17T20:58:19.234Z,81.42
2022-11-17T21:00:47.441Z,81.69
2022-11-17T21:03:14.363Z,81.38
2022-11-17T21:05:41.011Z,81.22
2022-11-17T21:08:07.610Z,80.94
2022-11-17T21:10:34.406Z,81.51
2022-11-17T21:13:01.009Z,81.20
2022-11-17T21:15:27.577Z,81.42
2022-11-17T21:17:55.524Z,81.16
2022-11-17T21:20:22.113Z,81.48
2022-11-17T21:22:48.732Z,81.07
2022-11-17T21:25:15.431Z,80.73
2022-11-17T21:27:41.993Z,81.29
2022-11-17T21:30:10.204Z,81.43
2022-11-17T21:32:36.775Z,80.84
2022-11-17T21:35:05.418Z,81.04
2022-11-17T21:37:31.978Z,81.18
2022-11-17T21:39:58.914Z,80.69
2022-11-17T21:42:25.563Z,81.05
2022-11-17T21:44:52.163Z,80.72
2022-11-17T21:47:18.796Z,80.81
2022-11-17T21:49:45.600Z,80.84
2022-11-17T21:52:13.528Z,80.56
2022-11-17T21:54:40.209Z,80.10
2022-11-17T21:57:06.831Z,80.58
2022-11-17T21:59:33.445Z,80.87
2022-11-17T22:02:00.027Z,80.27
2022-11-17T22:04:26.636Z,80.68
2022-11-17T22:06:53.246Z,80.08
2022-11-17T22:09:21.230Z,80.05
2022-11-17T22:11:47.825Z,80.42
2022-11-17T22:14:16.537Z,80.75
2022-11-17T22:16:44.503Z,80.68
2022-11-17T22:19:12.439Z,80.74
2022-11-17T22:21:39.872Z,80.44
2022-11-17T22:24:08.286Z,80.63
2022-11-17T22:26:36.955Z,80.37
2022-11-17T22:29:05.344Z,80.77
2022-11-17T22:31:32.295Z,80.72
2022-11-17T22:33:59.276Z,80.98
2022-11-17T22:36:25.837Z,80.67
2022-11-17T22:38:52.492Z,80.89
2022-11-17T22:41:20.355Z,80.59
2022-11-17T22:43:49.972Z,80.06
2022-11-17T22:46:16.858Z,80.36
2022-11-17T22:48:43.422Z,80.27
2022-11-17T22:51:10.226Z,79.74
2022-11-17T22:53:36.835Z,80.34
2022-11-17T22:56:05.978Z,80.14
2022-11-17T22:58:33.597Z,79.65
2022-11-17T23:01:05.371Z,79.82
2022-11-17T23:03:32.263Z,80.04
2022-11-17T23:06:01.377Z,79.73
2022-11-17T23:08:27.933Z,79.66
2022-11-17T23:11:21.794Z,80.00
2022-11-17T23:13:46.308Z,80.07
2022-11-17T23:16:14.290Z,80.02
2022-11-17T23:18:40.913Z,79.58
2022-11-17T23:21:09.684Z,79.93
2022-11-17T23:23:39.316Z,79.83
2022-11-17T23:26:09.156Z,79.89
2022-11-17T23:28:35.882Z,80.00
2022-11-17T23:31:04.346Z,80.11
2022-11-17T23:33:34.366Z,79.93
2022-11-17T23:36:01.040Z,79.99
2022-11-17T23:38:29.852Z,80.32
2022-11-17T23:40:59.311Z,80.04
2022-11-17T23:43:25.889Z,80.36
2022-11-17T23:45:52.462Z,80.86
2022-11-17T23:48:19.160Z,80.57
2022-11-17T23:50:47.220Z,80.88
2022-11-17T23:53:14.021Z,80.71
2022-11-17T23:55:40.675Z,80.59
2022-11-17T23:58:07.255Z,80.74
